PWSweather.com
Personal Weather Stations
Station Observations
TOSCANA255
MontespertoliIT 50025

MontespertoliIT 50025

Lat: 43.6454582, Lon: 11.0691319

Elevation: 843

Station Type: PCE-FWS20

http://www.meteomontespertoli.it

Latest ConditionsUpdated 1:29:19 AM GMT+01:01 Friday, Dec 14, 2018
Currently Today's Max Today's Min Today's Average
Temperature 40.6°F4.8°C 40.8°F4.9°C 40.3°F4.6°C 40.6°F4.8°C
Dew Point 31.6°F-0.2°C 32.0°F0.0°C 31.3°F-0.4°C 31.7°F-0.2°C
Winds 6.4 mph NW10.3 kmh NW 7.8 mph -12.6 kmh - - 5.5 mph 8.9 kmh
Wind Gusts 8.2 mph13.2 kmh 11.9 mph19.2 kmh - -
Humidity 70% 71% 69% 70%
Pressure 29.90 in1012.5 mb 29.91 in1012.9 mb 29.90 in1012.5 mb -
Hour Temp Dew Point Humidity Winds Wind Gusts Pressure Precip Precip Rate Daily Precip Total
01:29 AM 40.6°F4.8°C 31.6°F-0.2°C 70% 6.4 mph NW10.3 kmh NW 8.2 mph13.2 kmh 29.90 in1012.5 mb 0.00 in0.0 mm 0.00 in0.0 mm 0.00 in0.0 mm
01:28 AM 40.6°F4.8°C 31.6°F-0.2°C 70% 4.1 mph 6.6 kmh 6.4 mph10.3 kmh 29.90 in1012.5 mb 0.00 in0.0 mm 0.00 in0.0 mm 0.00 in0.0 mm
01:27 AM 40.6°F4.8°C 31.6°F-0.2°C 70% 5.0 mph 8.0 kmh 7.3 mph11.7 kmh 29.90 in1012.5 mb 0.00 in0.0 mm 0.00 in0.0 mm 0.00 in0.0 mm
01:26 AM 40.6°F4.8°C 31.6°F-0.2°C 70% 4.6 mph 7.4 kmh 7.8 mph12.6 kmh 29.90 in1012.5 mb 0.00 in0.0 mm 0.00 in0.0 mm 0.00 in0.0 mm
01:25 AM 40.6°F4.8°C 31.6°F-0.2°C 70% 5.5 mph 8.9 kmh 7.8 mph12.6 kmh 29.90 in1012.5 mb 0.00 in0.0 mm 0.00 in0.0 mm 0.00 in0.0 mm
01:24 AM 40.6°F4.8°C 31.6°F-0.2°C 70% 4.1 mph NW6.6 kmh NW 5.5 mph8.9 kmh 29.90 in1012.5 mb 0.00 in0.0 mm 0.00 in0.0 mm 0.00 in0.0 mm
01:23 AM 40.6°F4.8°C 31.6°F-0.2°C 70% 4.6 mph 7.4 kmh 6.9 mph11.1 kmh 29.90 in1012.5 mb 0.00 in0.0 mm 0.00 in0.0 mm 0.00 in0.0 mm
01:22 AM 40.6°F4.8°C 31.6°F-0.2°C 70% 5.5 mph 8.9 kmh 7.3 mph11.7 kmh 29.90 in1012.5 mb 0.00 in0.0 mm 0.00 in0.0 mm 0.00 in0.0 mm
01:21 AM 40.6°F4.8°C 31.6°F-0.2°C 70% 4.1 mph 6.6 kmh 5.9 mph9.5 kmh 29.90 in1012.5 mb 0.00 in0.0 mm 0.00 in0.0 mm 0.00 in0.0 mm
01:20 AM 40.6°F4.8°C 31.6°F-0.2°C 70% 5.0 mph 8.0 kmh 7.3 mph11.7 kmh 29.90 in1012.5 mb 0.00 in0.0 mm 0.00 in0.0 mm 0.00 in0.0 mm
01:19 AM 40.6°F4.8°C 31.6°F-0.2°C 70% 6.4 mph 10.3 kmh 10.0 mph16.1 kmh 29.90 in1012.5 mb 0.00 in0.0 mm 0.00 in0.0 mm 0.00 in0.0 mm
01:18 AM 40.6°F4.8°C 31.6°F-0.2°C 70% 5.0 mph 8.0 kmh 8.2 mph13.2 kmh 29.90 in1012.5 mb 0.00 in0.0 mm 0.00 in0.0 mm 0.00 in0.0 mm
01:17 AM 40.6°F4.8°C 31.6°F-0.2°C 70% 4.1 mph W6.6 kmh W 5.5 mph8.9 kmh 29.90 in1012.5 mb 0.00 in0.0 mm 0.00 in0.0 mm 0.00 in0.0 mm
01:16 AM 40.6°F4.8°C 31.6°F-0.2°C 70% 4.6 mph W7.4 kmh W 6.4 mph10.3 kmh 29.90 in1012.5 mb 0.00 in0.0 mm 0.00 in0.0 mm 0.00 in0.0 mm
01:15 AM 40.6°F4.8°C 31.6°F-0.2°C 70% 4.6 mph 7.4 kmh 6.4 mph10.3 kmh 29.90 in1012.5 mb 0.00 in0.0 mm 0.00 in0.0 mm 0.00 in0.0 mm
01:14 AM 40.6°F4.8°C 31.6°F-0.2°C 70% 5.5 mph 8.9 kmh 9.6 mph15.4 kmh 29.90 in1012.5 mb 0.00 in0.0 mm 0.00 in0.0 mm 0.00 in0.0 mm
01:13 AM 40.6°F4.8°C 31.6°F-0.2°C 70% 5.0 mph NW8.0 kmh NW 7.3 mph11.7 kmh 29.90 in1012.5 mb 0.00 in0.0 mm 0.00 in0.0 mm 0.00 in0.0 mm
01:12 AM 40.8°F4.9°C 31.8°F-0.1°C 70% 6.4 mph 10.3 kmh 7.8 mph12.6 kmh 29.90 in1012.5 mb 0.00 in0.0 mm 0.00 in0.0 mm 0.00 in0.0 mm
01:11 AM 40.8°F4.9°C 31.8°F-0.1°C 70% 5.9 mph 9.5 kmh 7.8 mph12.6 kmh 29.90 in1012.5 mb 0.00 in0.0 mm 0.00 in0.0 mm 0.00 in0.0 mm
01:10 AM 40.8°F4.9°C 31.5°F-0.3°C 69% 4.6 mph W7.4 kmh W 6.9 mph11.1 kmh 29.90 in1012.5 mb 0.00 in0.0 mm 0.00 in0.0 mm 0.00 in0.0 mm
01:09 AM 40.8°F4.9°C 31.5°F-0.3°C 69% 5.5 mph 8.9 kmh 6.9 mph11.1 kmh 29.90 in1012.5 mb 0.00 in0.0 mm 0.00 in0.0 mm 0.00 in0.0 mm
01:08 AM 40.8°F4.9°C 31.5°F-0.3°C 69% 6.4 mph 10.3 kmh 8.7 mph14.0 kmh 29.90 in1012.5 mb 0.00 in0.0 mm 0.00 in0.0 mm 0.00 in0.0 mm
01:07 AM 40.8°F4.9°C 31.5°F-0.3°C 69% 4.1 mph W6.6 kmh W 6.4 mph10.3 kmh 29.90 in1012.5 mb 0.00 in0.0 mm 0.00 in0.0 mm 0.00 in0.0 mm
01:06 AM 40.8°F4.9°C 31.5°F-0.3°C 69% 6.4 mph SW10.3 kmh SW 9.1 mph14.6 kmh 29.90 in1012.5 mb 0.00 in0.0 mm 0.00 in0.0 mm 0.00 in0.0 mm
01:05 AM 40.8°F4.9°C 31.5°F-0.3°C 69% 5.0 mph 8.0 kmh 7.3 mph11.7 kmh 29.90 in1012.5 mb 0.00 in0.0 mm 0.00 in0.0 mm 0.00 in0.0 mm
01:04 AM 40.8°F4.9°C 31.5°F-0.3°C 69% 6.4 mph W10.3 kmh W 8.7 mph14.0 kmh 29.90 in1012.5 mb 0.00 in0.0 mm 0.00 in0.0 mm 0.00 in0.0 mm
01:03 AM 40.8°F4.9°C 31.8°F-0.1°C 70% 7.3 mph W11.7 kmh W 9.6 mph15.4 kmh 29.90 in1012.5 mb 0.00 in0.0 mm 0.00 in0.0 mm 0.00 in0.0 mm
01:02 AM 40.8°F4.9°C 31.8°F-0.1°C 70% 5.5 mph W8.9 kmh W 6.9 mph11.1 kmh 29.90 in1012.5 mb 0.00 in0.0 mm 0.00 in0.0 mm 0.00 in0.0 mm
01:01 AM 40.8°F4.9°C 31.8°F-0.1°C 70% 6.4 mph 10.3 kmh 9.6 mph15.4 kmh 29.90 in1012.5 mb 0.00 in0.0 mm 0.00 in0.0 mm 0.00 in0.0 mm
01:00 AM 40.8°F4.9°C 31.8°F-0.1°C 70% 4.6 mph W7.4 kmh W 6.9 mph11.1 kmh 29.90 in1012.5 mb 0.00 in0.0 mm 0.00 in0.0 mm 0.00 in0.0 mm
12:59 AM 40.8°F4.9°C 31.8°F-0.1°C 70% 7.8 mph W12.6 kmh W 9.1 mph14.6 kmh 29.90 in1012.5 mb 0.00 in0.0 mm 0.00 in0.0 mm 0.00 in0.0 mm
12:58 AM 40.6°F4.8°C 31.6°F-0.2°C 70% 5.9 mph E9.5 kmh E 8.7 mph14.0 kmh 29.90 in1012.5 mb 0.00 in0.0 mm 0.00 in0.0 mm 0.00 in0.0 mm
12:57 AM 40.6°F4.8°C 31.6°F-0.2°C 70% 5.9 mph NW9.5 kmh NW 9.1 mph14.6 kmh 29.90 in1012.5 mb 0.00 in0.0 mm 0.00 in0.0 mm 0.00 in0.0 mm
12:56 AM 40.6°F4.8°C 31.6°F-0.2°C 70% 5.9 mph 9.5 kmh 9.1 mph14.6 kmh 29.90 in1012.5 mb 0.00 in0.0 mm 0.00 in0.0 mm 0.00 in0.0 mm
12:55 AM 40.6°F4.8°C 31.6°F-0.2°C 70% 4.6 mph 7.4 kmh 6.9 mph11.1 kmh 29.90 in1012.5 mb 0.00 in0.0 mm 0.00 in0.0 mm 0.00 in0.0 mm
12:54 AM 40.6°F4.8°C 31.6°F-0.2°C 70% 4.1 mph 6.6 kmh 6.9 mph11.1 kmh 29.90 in1012.5 mb 0.00 in0.0 mm 0.00 in0.0 mm 0.00 in0.0 mm
12:53 AM 40.6°F4.8°C 31.6°F-0.2°C 70% 5.0 mph 8.0 kmh 6.4 mph10.3 kmh 29.90 in1012.5 mb 0.00 in0.0 mm 0.00 in0.0 mm 0.00 in0.0 mm
12:52 AM 40.6°F4.8°C 31.6°F-0.2°C 70% 5.0 mph 8.0 kmh 7.3 mph11.7 kmh 29.90 in1012.5 mb 0.00 in0.0 mm 0.00 in0.0 mm 0.00 in0.0 mm
12:51 AM 40.6°F4.8°C 31.6°F-0.2°C 70% 5.5 mph 8.9 kmh 6.9 mph11.1 kmh 29.90 in1012.5 mb 0.00 in0.0 mm 0.00 in0.0 mm 0.00 in0.0 mm
12:50 AM 40.8°F4.9°C 31.8°F-0.1°C 70% 5.9 mph NW9.5 kmh NW 7.8 mph12.6 kmh 29.90 in1012.5 mb 0.00 in0.0 mm 0.00 in0.0 mm 0.00 in0.0 mm
12:49 AM 40.6°F4.8°C 31.6°F-0.2°C 70% 6.4 mph 10.3 kmh 8.2 mph13.2 kmh 29.90 in1012.5 mb 0.00 in0.0 mm 0.00 in0.0 mm 0.00 in0.0 mm
12:48 AM 40.8°F4.9°C 31.8°F-0.1°C 70% 5.9 mph NW9.5 kmh NW 7.3 mph11.7 kmh 29.90 in1012.5 mb 0.00 in0.0 mm 0.00 in0.0 mm 0.00 in0.0 mm
12:47 AM 40.8°F4.9°C 31.8°F-0.1°C 70% 4.1 mph 6.6 kmh 5.9 mph9.5 kmh 29.90 in1012.5 mb 0.00 in0.0 mm 0.00 in0.0 mm 0.00 in0.0 mm
12:46 AM 40.8°F4.9°C 31.8°F-0.1°C 70% 6.4 mph 10.3 kmh 8.7 mph14.0 kmh 29.90 in1012.5 mb 0.00 in0.0 mm 0.00 in0.0 mm 0.00 in0.0 mm
12:45 AM 40.6°F4.8°C 31.6°F-0.2°C 70% 5.0 mph 8.0 kmh 6.9 mph11.1 kmh 29.90 in1012.5 mb 0.00 in0.0 mm 0.00 in0.0 mm 0.00 in0.0 mm
12:44 AM 40.6°F4.8°C 31.6°F-0.2°C 70% 5.9 mph W9.5 kmh W 8.2 mph13.2 kmh 29.90 in1012.5 mb 0.00 in0.0 mm 0.00 in0.0 mm 0.00 in0.0 mm
12:43 AM 40.6°F4.8°C 31.6°F-0.2°C 70% 5.9 mph 9.5 kmh 10.0 mph16.1 kmh 29.90 in1012.5 mb 0.00 in0.0 mm 0.00 in0.0 mm 0.00 in0.0 mm
12:42 AM 40.6°F4.8°C 32.0°F0.0°C 71% 5.9 mph NW9.5 kmh NW 8.2 mph13.2 kmh 29.90 in1012.5 mb 0.00 in0.0 mm 0.00 in0.0 mm 0.00 in0.0 mm
12:41 AM 40.6°F4.8°C 32.0°F0.0°C 71% 7.8 mph 12.6 kmh 11.9 mph19.2 kmh 29.90 in1012.5 mb 0.00 in0.0 mm 0.00 in0.0 mm 0.00 in0.0 mm
12:40 AM 40.6°F4.8°C 32.0°F0.0°C 71% 6.4 mph 10.3 kmh 8.7 mph14.0 kmh 29.90 in1012.5 mb 0.00 in0.0 mm 0.00 in0.0 mm 0.00 in0.0 mm
12:39 AM 40.6°F4.8°C 32.0°F0.0°C 71% 5.9 mph E9.5 kmh E 8.2 mph13.2 kmh 29.90 in1012.5 mb 0.00 in0.0 mm 0.00 in0.0 mm 0.00 in0.0 mm
12:38 AM 40.6°F4.8°C 32.0°F0.0°C 71% 5.0 mph 8.0 kmh 7.3 mph11.7 kmh 29.90 in1012.5 mb 0.00 in0.0 mm 0.00 in0.0 mm 0.00 in0.0 mm
12:37 AM 40.5°F4.7°C 31.8°F-0.1°C 71% 4.6 mph 7.4 kmh 6.4 mph10.3 kmh 29.91 in1012.9 mb 0.00 in0.0 mm 0.00 in0.0 mm 0.00 in0.0 mm
12:36 AM 40.6°F4.8°C 32.0°F0.0°C 71% 3.7 mph 6.0 kmh 5.0 mph8.0 kmh 29.90 in1012.5 mb 0.00 in0.0 mm 0.00 in0.0 mm 0.00 in0.0 mm
12:35 AM 40.5°F4.7°C 31.8°F-0.1°C 71% 5.0 mph W8.0 kmh W 7.8 mph12.6 kmh 29.91 in1012.9 mb 0.00 in0.0 mm 0.00 in0.0 mm 0.00 in0.0 mm
12:34 AM 40.5°F4.7°C 31.8°F-0.1°C 71% 4.6 mph 7.4 kmh 5.9 mph9.5 kmh 29.90 in1012.5 mb 0.00 in0.0 mm 0.00 in0.0 mm 0.00 in0.0 mm
12:33 AM 40.5°F4.7°C 31.8°F-0.1°C 71% 7.3 mph W11.7 kmh W 9.1 mph14.6 kmh 29.91 in1012.9 mb 0.00 in0.0 mm 0.00 in0.0 mm 0.00 in0.0 mm
12:32 AM 40.5°F4.7°C 31.8°F-0.1°C 71% 5.5 mph 8.9 kmh 6.9 mph11.1 kmh 29.90 in1012.5 mb 0.00 in0.0 mm 0.00 in0.0 mm 0.00 in0.0 mm
12:31 AM 40.5°F4.7°C 31.8°F-0.1°C 71% 5.5 mph W8.9 kmh W 8.2 mph13.2 kmh 29.91 in1012.9 mb 0.00 in0.0 mm 0.00 in0.0 mm 0.00 in0.0 mm
12:30 AM 40.5°F4.7°C 31.8°F-0.1°C 71% 5.5 mph 8.9 kmh 6.9 mph11.1 kmh 29.91 in1012.9 mb 0.00 in0.0 mm 0.00 in0.0 mm 0.00 in0.0 mm
12:29 AM 40.5°F4.7°C 31.8°F-0.1°C 71% 5.0 mph 8.0 kmh 5.9 mph9.5 kmh 29.91 in1012.9 mb 0.00 in0.0 mm 0.00 in0.0 mm 0.00 in0.0 mm
12:28 AM 40.5°F4.7°C 31.8°F-0.1°C 71% 4.1 mph 6.6 kmh 6.4 mph10.3 kmh 29.91 in1012.9 mb 0.00 in0.0 mm 0.00 in0.0 mm 0.00 in0.0 mm
12:27 AM 40.5°F4.7°C 31.8°F-0.1°C 71% 5.5 mph 8.9 kmh 7.3 mph11.7 kmh 29.91 in1012.9 mb 0.00 in0.0 mm 0.00 in0.0 mm 0.00 in0.0 mm
12:26 AM 40.5°F4.7°C 31.8°F-0.1°C 71% 7.3 mph 11.7 kmh 9.6 mph15.4 kmh 29.91 in1012.9 mb 0.00 in0.0 mm 0.00 in0.0 mm 0.00 in0.0 mm
12:25 AM 40.5°F4.7°C 31.8°F-0.1°C 71% 6.4 mph 10.3 kmh 9.1 mph14.6 kmh 29.91 in1012.9 mb 0.00 in0.0 mm 0.00 in0.0 mm 0.00 in0.0 mm
12:24 AM 40.5°F4.7°C 31.8°F-0.1°C 71% 6.4 mph 10.3 kmh 8.7 mph14.0 kmh 29.91 in1012.9 mb 0.00 in0.0 mm 0.00 in0.0 mm 0.00 in0.0 mm
12:23 AM 40.5°F4.7°C 31.8°F-0.1°C 71% 5.9 mph 9.5 kmh 7.3 mph11.7 kmh 29.91 in1012.9 mb 0.00 in0.0 mm 0.00 in0.0 mm 0.00 in0.0 mm
12:22 AM 40.5°F4.7°C 31.8°F-0.1°C 71% 4.6 mph WNW7.4 kmh WNW 7.8 mph12.6 kmh 29.91 in1012.9 mb 0.00 in0.0 mm 0.00 in0.0 mm 0.00 in0.0 mm
12:21 AM 40.5°F4.7°C 31.8°F-0.1°C 71% 6.4 mph NW10.3 kmh NW 9.6 mph15.4 kmh 29.91 in1012.9 mb 0.00 in0.0 mm 0.00 in0.0 mm 0.00 in0.0 mm
12:20 AM 40.3°F4.6°C 31.6°F-0.2°C 71% 5.0 mph W8.0 kmh W 7.3 mph11.7 kmh 29.91 in1012.9 mb 0.00 in0.0 mm 0.00 in0.0 mm 0.00 in0.0 mm
12:19 AM 40.3°F4.6°C 31.6°F-0.2°C 71% 6.4 mph 10.3 kmh 9.6 mph15.4 kmh 29.91 in1012.9 mb 0.00 in0.0 mm 0.00 in0.0 mm 0.00 in0.0 mm
12:18 AM 40.3°F4.6°C 31.6°F-0.2°C 71% 5.5 mph W8.9 kmh W 7.3 mph11.7 kmh 29.91 in1012.9 mb 0.00 in0.0 mm 0.00 in0.0 mm 0.00 in0.0 mm
12:17 AM 40.3°F4.6°C 31.6°F-0.2°C 71% 5.0 mph 8.0 kmh 6.4 mph10.3 kmh 29.91 in1012.9 mb 0.00 in0.0 mm 0.00 in0.0 mm 0.00 in0.0 mm
12:16 AM 40.3°F4.6°C 31.6°F-0.2°C 71% 5.9 mph WNW9.5 kmh WNW 8.2 mph13.2 kmh 29.91 in1012.9 mb 0.00 in0.0 mm 0.00 in0.0 mm 0.00 in0.0 mm
12:15 AM 40.3°F4.6°C 31.6°F-0.2°C 71% 5.5 mph WNW8.9 kmh WNW 7.8 mph12.6 kmh 29.91 in1012.9 mb 0.00 in0.0 mm 0.00 in0.0 mm 0.00 in0.0 mm
12:14 AM 40.3°F4.6°C 31.6°F-0.2°C 71% 5.9 mph NW9.5 kmh NW 6.9 mph11.1 kmh 29.91 in1012.9 mb 0.00 in0.0 mm 0.00 in0.0 mm 0.00 in0.0 mm
12:13 AM 40.3°F4.6°C 31.6°F-0.2°C 71% 7.3 mph 11.7 kmh 9.6 mph15.4 kmh 29.91 in1012.9 mb 0.00 in0.0 mm 0.00 in0.0 mm 0.00 in0.0 mm
12:12 AM 40.3°F4.6°C 31.6°F-0.2°C 71% 4.1 mph W6.6 kmh W 6.9 mph11.1 kmh 29.91 in1012.9 mb 0.00 in0.0 mm 0.00 in0.0 mm 0.00 in0.0 mm
12:11 AM 40.3°F4.6°C 31.6°F-0.2°C 71% 5.5 mph W8.9 kmh W 7.3 mph11.7 kmh 29.91 in1012.9 mb 0.00 in0.0 mm 0.00 in0.0 mm 0.00 in0.0 mm
12:10 AM 40.3°F4.6°C 31.6°F-0.2°C 71% 6.9 mph 11.1 kmh 9.1 mph14.6 kmh 29.91 in1012.9 mb 0.00 in0.0 mm 0.00 in0.0 mm 0.00 in0.0 mm
12:09 AM 40.3°F4.6°C 31.6°F-0.2°C 71% 5.0 mph 8.0 kmh 9.1 mph14.6 kmh 29.91 in1012.9 mb 0.00 in0.0 mm 0.00 in0.0 mm 0.00 in0.0 mm
12:08 AM 40.3°F4.6°C 31.6°F-0.2°C 71% 3.7 mph WNW6.0 kmh WNW 5.0 mph8.0 kmh 29.91 in1012.9 mb 0.00 in0.0 mm 0.00 in0.0 mm 0.00 in0.0 mm
12:07 AM 40.3°F4.6°C 31.6°F-0.2°C 71% 5.5 mph NW8.9 kmh NW 7.3 mph11.7 kmh 29.91 in1012.9 mb 0.00 in0.0 mm 0.00 in0.0 mm 0.00 in0.0 mm
12:06 AM 40.3°F4.6°C 31.6°F-0.2°C 71% 5.5 mph W8.9 kmh W 7.3 mph11.7 kmh 29.91 in1012.9 mb 0.00 in0.0 mm 0.00 in0.0 mm 0.00 in0.0 mm
12:05 AM 40.3°F4.6°C 31.3°F-0.4°C 70% 5.0 mph 8.0 kmh 7.3 mph11.7 kmh 29.91 in1012.9 mb 0.00 in0.0 mm 0.00 in0.0 mm 0.00 in0.0 mm
12:04 AM 40.5°F4.7°C 31.5°F-0.3°C 70% 5.5 mph W8.9 kmh W 7.3 mph11.7 kmh 29.91 in1012.9 mb 0.00 in0.0 mm 0.00 in0.0 mm 0.00 in0.0 mm
12:03 AM 40.5°F4.7°C 31.5°F-0.3°C 70% 5.9 mph W9.5 kmh W 9.1 mph14.6 kmh 29.91 in1012.9 mb 0.00 in0.0 mm 0.00 in0.0 mm 0.08 in2.0 mm